sensor_id;sensor_type;location;lat;lon;timestamp;temperature;humidity
14723;DHT22;7452;55.594;12.986;2023-03-03T00:01:07;3.20;99.90
14723;DHT22;7452;55.594;12.986;2023-03-03T00:03:34;3.20;99.90
14723;DHT22;7452;55.594;12.986;2023-03-03T00:06:04;3.20;99.90
14723;DHT22;7452;55.594;12.986;2023-03-03T00:08:31;3.20;99.90
14723;DHT22;7452;55.594;12.986;2023-03-03T00:11:09;3.20;99.90
14723;DHT22;7452;55.594;12.986;2023-03-03T00:13:57;3.20;99.90
14723;DHT22;7452;55.594;12.986;2023-03-03T00:16:28;3.20;99.90
14723;DHT22;7452;55.594;12.986;2023-03-03T00:18:57;3.30;99.90
14723;DHT22;7452;55.594;12.986;2023-03-03T00:21:31;3.20;99.90
14723;DHT22;7452;55.594;12.986;2023-03-03T00:24:18;3.20;99.90
14723;DHT22;7452;55.594;12.986;2023-03-03T00:26:48;3.20;99.90
14723;DHT22;7452;55.594;12.986;2023-03-03T00:29:30;3.20;99.90
14723;DHT22;7452;55.594;12.986;2023-03-03T00:32:22;3.20;99.90
14723;DHT22;7452;55.594;12.986;2023-03-03T00:34:49;3.20;99.90
14723;DHT22;7452;55.594;12.986;2023-03-03T00:37:33;3.20;99.90
14723;DHT22;7452;55.594;12.986;2023-03-03T00:40:15;3.20;99.90
14723;DHT22;7452;55.594;12.986;2023-03-03T00:42:48;3.20;99.90
14723;DHT22;7452;55.594;12.986;2023-03-03T00:45:26;3.20;99.90
14723;DHT22;7452;55.594;12.986;2023-03-03T00:47:56;3.20;99.90
14723;DHT22;7452;55.594;12.986;2023-03-03T00:50:33;3.30;99.90
14723;DHT22;7452;55.594;12.986;2023-03-03T00:53:04;3.20;99.90
14723;DHT22;7452;55.594;12.986;2023-03-03T00:55:33;3.20;99.90
14723;DHT22;7452;55.594;12.986;2023-03-03T00:58:13;3.20;99.90
14723;DHT22;7452;55.594;12.986;2023-03-03T01:00:40;3.20;99.90
14723;DHT22;7452;55.594;12.986;2023-03-03T01:03:08;3.20;99.90
14723;DHT22;7452;55.594;12.986;2023-03-03T01:05:35;3.20;99.90
14723;DHT22;7452;55.594;12.986;2023-03-03T01:08:03;3.10;99.90
14723;DHT22;7452;55.594;12.986;2023-03-03T01:10:34;3.20;99.90
14723;DHT22;7452;55.594;12.986;2023-03-03T01:13:06;3.20;99.90
14723;DHT22;7452;55.594;12.986;2023-03-03T01:15:34;3.20;99.90
14723;DHT22;7452;55.594;12.986;2023-03-03T01:18:01;3.30;99.90
14723;DHT22;7452;55.594;12.986;2023-03-03T01:20:31;3.30;99.90
14723;DHT22;7452;55.594;12.986;2023-03-03T01:23:00;3.30;99.90
14723;DHT22;7452;55.594;12.986;2023-03-03T01:25:29;3.30;99.90
14723;DHT22;7452;55.594;12.986;2023-03-03T01:27:57;3.40;99.90
14723;DHT22;7452;55.594;12.986;2023-03-03T01:30:27;3.40;99.90
14723;DHT22;7452;55.594;12.986;2023-03-03T01:32:56;3.40;99.90
14723;DHT22;7452;55.594;12.986;2023-03-03T01:35:23;3.40;99.90
14723;DHT22;7452;55.594;12.986;2023-03-03T01:37:51;3.40;99.90
14723;DHT22;7452;55.594;12.986;2023-03-03T01:40:22;3.40;99.90
14723;DHT22;7452;55.594;12.986;2023-03-03T01:42:53;3.40;99.90
14723;DHT22;7452;55.594;12.986;2023-03-03T01:45:22;3.40;99.90
14723;DHT22;7452;55.594;12.986;2023-03-03T01:47:55;3.30;99.90
14723;DHT22;7452;55.594;12.986;2023-03-03T01:50:35;3.30;99.90
14723;DHT22;7452;55.594;12.986;2023-03-03T01:53:04;3.30;99.90
14723;DHT22;7452;55.594;12.986;2023-03-03T01:55:36;3.30;99.90
14723;DHT22;7452;55.594;12.986;2023-03-03T01:58:08;3.30;99.90
14723;DHT22;7452;55.594;12.986;2023-03-03T02:00:37;3.30;99.90
14723;DHT22;7452;55.594;12.986;2023-03-03T02:03:23;3.30;99.90
14723;DHT22;7452;55.594;12.986;2023-03-03T02:05:52;3.20;99.90
14723;DHT22;7452;55.594;12.986;2023-03-03T02:08:24;3.20;99.90
14723;DHT22;7452;55.594;12.986;2023-03-03T02:11:04;3.20;99.90
14723;DHT22;7452;55.594;12.986;2023-03-03T02:13:32;3.20;99.90
14723;DHT22;7452;55.594;12.986;2023-03-03T02:15:59;3.20;99.90
14723;DHT22;7452;55.594;12.986;2023-03-03T02:18:28;3.20;99.90
14723;DHT22;7452;55.594;12.986;2023-03-03T02:20:58;3.10;99.90
14723;DHT22;7452;55.594;12.986;2023-03-03T02:23:32;3.10;99.90
14723;DHT22;7452;55.594;12.986;2023-03-03T02:26:10;3.10;99.90
14723;DHT22;7452;55.594;12.986;2023-03-03T02:28:40;3.10;99.90
14723;DHT22;7452;55.594;12.986;2023-03-03T02:31:13;3.10;99.90
14723;DHT22;7452;55.594;12.986;2023-03-03T02:33:42;3.10;99.90
14723;DHT22;7452;55.594;12.986;2023-03-03T02:36:13;3.10;99.90
14723;DHT22;7452;55.594;12.986;2023-03-03T02:38:45;3.10;99.90
14723;DHT22;7452;55.594;12.986;2023-03-03T02:41:25;3.10;99.90
14723;DHT22;7452;55.594;12.986;2023-03-03T02:43:57;3.10;99.90
14723;DHT22;7452;55.594;12.986;2023-03-03T02:46:32;3.10;99.90
14723;DHT22;7452;55.594;12.986;2023-03-03T02:48:59;3.10;99.90
14723;DHT22;7452;55.594;12.986;2023-03-03T02:51:27;3.10;99.90
14723;DHT22;7452;55.594;12.986;2023-03-03T02:53:56;3.10;99.90
14723;DHT22;7452;55.594;12.986;2023-03-03T02:56:27;3.20;99.90
14723;DHT22;7452;55.594;12.986;2023-03-03T02:58:55;3.20;99.90
14723;DHT22;7452;55.594;12.986;2023-03-03T03:01:22;3.10;99.90
14723;DHT22;7452;55.594;12.986;2023-03-03T03:03:50;3.10;99.90
14723;DHT22;7452;55.594;12.986;2023-03-03T03:06:17;3.10;99.90
14723;DHT22;7452;55.594;12.986;2023-03-03T03:08:45;3.10;99.90
14723;DHT22;7452;55.594;12.986;2023-03-03T03:11:16;3.10;99.90
14723;DHT22;7452;55.594;12.986;2023-03-03T03:13:45;3.10;99.90
14723;DHT22;7452;55.594;12.986;2023-03-03T03:16:12;3.10;99.90
14723;DHT22;7452;55.594;12.986;2023-03-03T03:18:39;3.10;99.90
14723;DHT22;7452;55.594;12.986;2023-03-03T03:21:08;3.10;99.90
14723;DHT22;7452;55.594;12.986;2023-03-03T03:23:36;3.10;99.90
14723;DHT22;7452;55.594;12.986;2023-03-03T03:26:03;3.20;99.90
14723;DHT22;7452;55.594;12.986;2023-03-03T03:28:32;3.20;99.90
14723;DHT22;7452;55.594;12.986;2023-03-03T03:31:01;3.20;99.90
14723;DHT22;7452;55.594;12.986;2023-03-03T03:33:29;3.20;99.90
14723;DHT22;7452;55.594;12.986;2023-03-03T03:35:57;3.10;99.90
14723;DHT22;7452;55.594;12.986;2023-03-03T03:38:26;3.20;99.90
14723;DHT22;7452;55.594;12.986;2023-03-03T03:40:56;3.10;99.90
14723;DHT22;7452;55.594;12.986;2023-03-03T03:43:23;3.20;99.90
14723;DHT22;7452;55.594;12.986;2023-03-03T03:45:50;3.10;99.90
14723;DHT22;7452;55.594;12.986;2023-03-03T03:48:23;3.10;99.90
14723;DHT22;7452;55.594;12.986;2023-03-03T03:50:50;3.10;99.90
14723;DHT22;7452;55.594;12.986;2023-03-03T03:53:18;3.10;99.90
14723;DHT22;7452;55.594;12.986;2023-03-03T03:55:47;3.10;99.90
14723;DHT22;7452;55.594;12.986;2023-03-03T03:58:15;3.00;99.90
14723;DHT22;7452;55.594;12.986;2023-03-03T04:00:44;3.00;99.90
14723;DHT22;7452;55.594;12.986;2023-03-03T04:03:11;3.00;99.90
14723;DHT22;7452;55.594;12.986;2023-03-03T04:05:43;3.00;99.90
14723;DHT22;7452;55.594;12.986;2023-03-03T04:08:11;3.00;99.90
14723;DHT22;7452;55.594;12.986;2023-03-03T04:10:38;3.00;99.90
14723;DHT22;7452;55.594;12.986;2023-03-03T04:13:05;3.00;99.90
14723;DHT22;7452;55.594;12.986;2023-03-03T04:15:32;3.00;99.90
14723;DHT22;7452;55.594;12.986;2023-03-03T04:17:59;3.00;99.90
14723;DHT22;7452;55.594;12.986;2023-03-03T04:20:27;3.00;99.90
14723;DHT22;7452;55.594;12.986;2023-03-03T04:22:55;2.90;99.90
14723;DHT22;7452;55.594;12.986;2023-03-03T04:25:23;2.90;99.90
14723;DHT22;7452;55.594;12.986;2023-03-03T04:27:50;2.90;99.90
14723;DHT22;7452;55.594;12.986;2023-03-03T04:30:19;2.90;99.90
14723;DHT22;7452;55.594;12.986;2023-03-03T04:32:46;2.80;99.90
14723;DHT22;7452;55.594;12.986;2023-03-03T04:35:15;2.80;99.90
14723;DHT22;7452;55.594;12.986;2023-03-03T04:37:47;2.90;99.90
14723;DHT22;7452;55.594;12.986;2023-03-03T04:40:16;2.90;99.90
14723;DHT22;7452;55.594;12.986;2023-03-03T04:42:43;2.80;99.90
14723;DHT22;7452;55.594;12.986;2023-03-03T04:45:10;2.80;99.90
14723;DHT22;7452;55.594;12.986;2023-03-03T04:47:39;2.80;99.90
14723;DHT22;7452;55.594;12.986;2023-03-03T04:50:10;2.80;99.90
14723;DHT22;7452;55.594;12.986;2023-03-03T04:52:37;2.80;99.90
14723;DHT22;7452;55.594;12.986;2023-03-03T04:55:06;2.80;99.90
14723;DHT22;7452;55.594;12.986;2023-03-03T04:57:35;2.80;99.90
14723;DHT22;7452;55.594;12.986;2023-03-03T05:00:03;2.70;99.90
14723;DHT22;7452;55.594;12.986;2023-03-03T05:02:31;2.80;99.90
14723;DHT22;7452;55.594;12.986;2023-03-03T05:04:59;2.70;99.90
14723;DHT22;7452;55.594;12.986;2023-03-03T05:07:27;2.70;99.90
14723;DHT22;7452;55.594;12.986;2023-03-03T05:09:55;2.70;99.90
14723;DHT22;7452;55.594;12.986;2023-03-03T05:12:22;2.70;99.90
14723;DHT22;7452;55.594;12.986;2023-03-03T05:14:54;2.70;99.90
14723;DHT22;7452;55.594;12.986;2023-03-03T05:17:24;2.70;99.90
14723;DHT22;7452;55.594;12.986;2023-03-03T05:19:52;2.70;99.90
14723;DHT22;7452;55.594;12.986;2023-03-03T05:22:21;2.60;99.90
14723;DHT22;7452;55.594;12.986;2023-03-03T05:24:50;2.60;99.90
14723;DHT22;7452;55.594;12.986;2023-03-03T05:27:19;2.60;99.90
14723;DHT22;7452;55.594;12.986;2023-03-03T05:29:47;2.60;99.90
14723;DHT22;7452;55.594;12.986;2023-03-03T05:32:20;2.60;99.90
14723;DHT22;7452;55.594;12.986;2023-03-03T05:34:49;2.50;99.90
14723;DHT22;7452;55.594;12.986;2023-03-03T05:37:17;2.50;99.90
14723;DHT22;7452;55.594;12.986;2023-03-03T05:39:45;2.50;99.90
14723;DHT22;7452;55.594;12.986;2023-03-03T05:42:15;2.50;99.90
14723;DHT22;7452;55.594;12.986;2023-03-03T05:44:44;2.50;99.90
14723;DHT22;7452;55.594;12.986;2023-03-03T05:47:12;2.50;99.90
14723;DHT22;7452;55.594;12.986;2023-03-03T05:49:42;2.50;99.90
14723;DHT22;7452;55.594;12.986;2023-03-03T05:52:09;2.50;99.90
14723;DHT22;7452;55.594;12.986;2023-03-03T05:54:39;2.50;99.90
14723;DHT22;7452;55.594;12.986;2023-03-03T05:57:06;2.50;99.90
14723;DHT22;7452;55.594;12.986;2023-03-03T05:59:34;2.60;99.90
14723;DHT22;7452;55.594;12.986;2023-03-03T06:02:03;2.50;99.90
14723;DHT22;7452;55.594;12.986;2023-03-03T06:04:31;2.60;99.90
14723;DHT22;7452;55.594;12.986;2023-03-03T06:07:01;2.60;99.90
14723;DHT22;7452;55.594;12.986;2023-03-03T06:09:30;2.60;99.90
14723;DHT22;7452;55.594;12.986;2023-03-03T06:11:59;2.60;99.90
14723;DHT22;7452;55.594;12.986;2023-03-03T06:14:28;2.60;99.90
14723;DHT22;7452;55.594;12.986;2023-03-03T06:16:55;2.60;99.90
14723;DHT22;7452;55.594;12.986;2023-03-03T06:19:25;2.60;99.90
14723;DHT22;7452;55.594;12.986;2023-03-03T06:21:59;2.60;99.90
14723;DHT22;7452;55.594;12.986;2023-03-03T06:24:28;2.60;99.90
14723;DHT22;7452;55.594;12.986;2023-03-03T06:26:59;2.60;99.90
14723;DHT22;7452;55.594;12.986;2023-03-03T06:29:27;2.70;99.90
14723;DHT22;7452;55.594;12.986;2023-03-03T06:31:55;2.70;99.90
14723;DHT22;7452;55.594;12.986;2023-03-03T06:34:23;2.70;99.90
14723;DHT22;7452;55.594;12.986;2023-03-03T06:36:52;2.70;99.90
14723;DHT22;7452;55.594;12.986;2023-03-03T06:39:20;2.80;99.90
14723;DHT22;7452;55.594;12.986;2023-03-03T06:41:47;2.80;99.90
14723;DHT22;7452;55.594;12.986;2023-03-03T06:44:15;2.90;99.90
14723;DHT22;7452;55.594;12.986;2023-03-03T06:46:42;2.90;99.90
14723;DHT22;7452;55.594;12.986;2023-03-03T06:49:10;3.00;99.90
14723;DHT22;7452;55.594;12.986;2023-03-03T06:51:38;3.10;99.90
14723;DHT22;7452;55.594;12.986;2023-03-03T06:54:11;3.20;99.90
14723;DHT22;7452;55.594;12.986;2023-03-03T06:56:45;3.30;99.90
14723;DHT22;7452;55.594;12.986;2023-03-03T06:59:14;3.30;99.90
14723;DHT22;7452;55.594;12.986;2023-03-03T07:01:43;3.40;99.90
14723;DHT22;7452;55.594;12.986;2023-03-03T07:04:21;3.50;99.90
14723;DHT22;7452;55.594;12.986;2023-03-03T07:06:50;3.60;99.90
14723;DHT22;7452;55.594;12.986;2023-03-03T07:09:21;3.70;99.90
14723;DHT22;7452;55.594;12.986;2023-03-03T07:11:52;3.80;99.90
14723;DHT22;7452;55.594;12.986;2023-03-03T07:14:19;3.80;99.90
14723;DHT22;7452;55.594;12.986;2023-03-03T07:16:50;3.90;99.90
14723;DHT22;7452;55.594;12.986;2023-03-03T07:19:25;3.80;99.90
14723;DHT22;7452;55.594;12.986;2023-03-03T07:21:54;3.80;99.90
14723;DHT22;7452;55.594;12.986;2023-03-03T07:24:27;3.90;99.90
14723;DHT22;7452;55.594;12.986;2023-03-03T07:26:59;3.90;99.90
14723;DHT22;7452;55.594;12.986;2023-03-03T07:29:35;3.90;99.90
14723;DHT22;7452;55.594;12.986;2023-03-03T07:32:21;3.90;99.90
14723;DHT22;7452;55.594;12.986;2023-03-03T07:34:51;3.90;99.90
14723;DHT22;7452;55.594;12.986;2023-03-03T07:37:28;4.00;99.90
14723;DHT22;7452;55.594;12.986;2023-03-03T07:39:59;4.10;99.90
14723;DHT22;7452;55.594;12.986;2023-03-03T07:42:35;4.30;99.90
14723;DHT22;7452;55.594;12.986;2023-03-03T07:45:21;4.20;99.90
14723;DHT22;7452;55.594;12.986;2023-03-03T07:47:49;4.10;99.90
14723;DHT22;7452;55.594;12.986;2023-03-03T07:50:19;4.20;99.90
14723;DHT22;7452;55.594;12.986;2023-03-03T07:52:52;4.20;99.90
14723;DHT22;7452;55.594;12.986;2023-03-03T07:55:27;4.20;99.90
14723;DHT22;7452;55.594;12.986;2023-03-03T07:58:13;4.20;99.90
14723;DHT22;7452;55.594;12.986;2023-03-03T08:03:55;4.30;99.90
14723;DHT22;7452;55.594;12.986;2023-03-03T08:06:36;4.40;99.90
14723;DHT22;7452;55.594;12.986;2023-03-03T08:09:35;4.30;99.90
14723;DHT22;7452;55.594;12.986;2023-03-03T08:12:27;4.40;99.90
14723;DHT22;7452;55.594;12.986;2023-03-03T08:14:57;4.40;99.90
14723;DHT22;7452;55.594;12.986;2023-03-03T08:17:34;4.50;99.90
14723;DHT22;7452;55.594;12.986;2023-03-03T08:22:50;4.40;99.90
14723;DHT22;7452;55.594;12.986;2023-03-03T08:25:20;4.50;99.90
14723;DHT22;7452;55.594;12.986;2023-03-03T08:27:47;4.40;99.90
14723;DHT22;7452;55.594;12.986;2023-03-03T08:30:19;4.50;99.90
14723;DHT22;7452;55.594;12.986;2023-03-03T08:32:46;4.50;99.90
14723;DHT22;7452;55.594;12.986;2023-03-03T08:35:30;4.50;99.90
14723;DHT22;7452;55.594;12.986;2023-03-03T08:37:58;4.50;99.90
14723;DHT22;7452;55.594;12.986;2023-03-03T08:40:25;4.40;99.90
14723;DHT22;7452;55.594;12.986;2023-03-03T08:42:52;4.40;99.90
14723;DHT22;7452;55.594;12.986;2023-03-03T08:45:24;4.40;99.90
14723;DHT22;7452;55.594;12.986;2023-03-03T08:47:53;4.30;99.90
14723;DHT22;7452;55.594;12.986;2023-03-03T08:50:21;4.30;99.90
14723;DHT22;7452;55.594;12.986;2023-03-03T08:52:49;4.30;99.90
14723;DHT22;7452;55.594;12.986;2023-03-03T08:55:17;4.30;99.90
14723;DHT22;7452;55.594;12.986;2023-03-03T08:57:44;4.30;99.90
14723;DHT22;7452;55.594;12.986;2023-03-03T09:00:14;4.40;99.90
14723;DHT22;7452;55.594;12.986;2023-03-03T09:02:46;4.40;99.90
14723;DHT22;7452;55.594;12.986;2023-03-03T09:05:16;4.50;99.90
14723;DHT22;7452;55.594;12.986;2023-03-03T09:07:47;4.50;99.90
14723;DHT22;7452;55.594;12.986;2023-03-03T09:10:17;4.50;99.90
14723;DHT22;7452;55.594;12.986;2023-03-03T09:12:46;4.50;99.90
14723;DHT22;7452;55.594;12.986;2023-03-03T09:15:20;4.50;99.90
14723;DHT22;7452;55.594;12.986;2023-03-03T09:17:57;4.50;99.90
14723;DHT22;7452;55.594;12.986;2023-03-03T09:20:36;4.60;99.90
14723;DHT22;7452;55.594;12.986;2023-03-03T09:23:30;4.60;99.90
14723;DHT22;7452;55.594;12.986;2023-03-03T09:26:14;4.60;99.90
14723;DHT22;7452;55.594;12.986;2023-03-03T09:29:10;4.60;99.90
14723;DHT22;7452;55.594;12.986;2023-03-03T09:31:45;4.60;99.90
14723;DHT22;7452;55.594;12.986;2023-03-03T09:37:17;4.60;99.90
14723;DHT22;7452;55.594;12.986;2023-03-03T09:39:45;4.50;99.90
14723;DHT22;7452;55.594;12.986;2023-03-03T09:42:45;4.50;99.90
14723;DHT22;7452;55.594;12.986;2023-03-03T09:45:39;4.50;99.90
14723;DHT22;7452;55.594;12.986;2023-03-03T09:48:39;4.50;99.90
14723;DHT22;7452;55.594;12.986;2023-03-03T09:51:17;4.50;99.90
14723;DHT22;7452;55.594;12.986;2023-03-03T09:57:05;4.60;99.90
14723;DHT22;7452;55.594;12.986;2023-03-03T10:02:46;4.30;99.90
14723;DHT22;7452;55.594;12.986;2023-03-03T10:05:30;4.30;99.90
14723;DHT22;7452;55.594;12.986;2023-03-03T10:08:14;4.40;99.90
14723;DHT22;7452;55.594;12.986;2023-03-03T10:11:03;4.60;99.90
14723;DHT22;7452;55.594;12.986;2023-03-03T10:13:43;4.60;99.90
14723;DHT22;7452;55.594;12.986;2023-03-03T10:16:50;4.60;99.90
14723;DHT22;7452;55.594;12.986;2023-03-03T10:19:35;4.20;99.90
14723;DHT22;7452;55.594;12.986;2023-03-03T10:22:18;4.20;99.90
14723;DHT22;7452;55.594;12.986;2023-03-03T10:25:06;4.30;99.90
14723;DHT22;7452;55.594;12.986;2023-03-03T10:27:47;4.60;99.90
14723;DHT22;7452;55.594;12.986;2023-03-03T10:30:20;4.70;99.90
14723;DHT22;7452;55.594;12.986;2023-03-03T10:32:57;4.80;99.90
14723;DHT22;7452;55.594;12.986;2023-03-03T10:36:00;4.80;99.90
14723;DHT22;7452;55.594;12.986;2023-03-03T10:38:45;4.80;99.90
14723;DHT22;7452;55.594;12.986;2023-03-03T10:41:36;4.80;99.90
14723;DHT22;7452;55.594;12.986;2023-03-03T10:44:32;4.90;99.90
14723;DHT22;7452;55.594;12.986;2023-03-03T10:47:25;4.90;99.90
14723;DHT22;7452;55.594;12.986;2023-03-03T10:50:02;4.90;99.90
14723;DHT22;7452;55.594;12.986;2023-03-03T10:52:38;5.00;99.90
14723;DHT22;7452;55.594;12.986;2023-03-03T10:55:24;5.00;99.90
14723;DHT22;7452;55.594;12.986;2023-03-03T10:58:05;5.00;99.90
14723;DHT22;7452;55.594;12.986;2023-03-03T11:00:48;5.20;99.90
14723;DHT22;7452;55.594;12.986;2023-03-03T11:03:56;5.10;99.90
14723;DHT22;7452;55.594;12.986;2023-03-03T11:06:32;4.70;99.90
14723;DHT22;7452;55.594;12.986;2023-03-03T11:09:07;4.50;99.90
14723;DHT22;7452;55.594;12.986;2023-03-03T11:11:41;4.50;99.90
14723;DHT22;7452;55.594;12.986;2023-03-03T11:14:21;4.50;99.90
14723;DHT22;7452;55.594;12.986;2023-03-03T11:16:57;4.30;99.90
14723;DHT22;7452;55.594;12.986;2023-03-03T11:19:54;4.30;99.90
14723;DHT22;7452;55.594;12.986;2023-03-03T11:22:34;4.20;99.90
14723;DHT22;7452;55.594;12.986;2023-03-03T11:25:17;4.00;99.90
14723;DHT22;7452;55.594;12.986;2023-03-03T11:27:59;3.90;99.90
14723;DHT22;7452;55.594;12.986;2023-03-03T11:30:46;3.90;99.90
14723;DHT22;7452;55.594;12.986;2023-03-03T11:33:20;3.80;99.90
14723;DHT22;7452;55.594;12.986;2023-03-03T11:35:52;3.50;99.90
14723;DHT22;7452;55.594;12.986;2023-03-03T11:38:44;3.60;99.90
14723;DHT22;7452;55.594;12.986;2023-03-03T11:41:22;3.70;99.90
14723;DHT22;7452;55.594;12.986;2023-03-03T11:43:55;3.60;99.90
14723;DHT22;7452;55.594;12.986;2023-03-03T11:46:29;3.70;99.90
14723;DHT22;7452;55.594;12.986;2023-03-03T11:49:04;3.90;99.90
14723;DHT22;7452;55.594;12.986;2023-03-03T11:51:43;4.10;99.90
14723;DHT22;7452;55.594;12.986;2023-03-03T11:54:19;4.10;99.90
14723;DHT22;7452;55.594;12.986;2023-03-03T11:56:55;4.10;99.90
14723;DHT22;7452;55.594;12.986;2023-03-03T11:59:40;4.10;99.90
14723;DHT22;7452;55.594;12.986;2023-03-03T12:02:26;4.00;99.90
14723;DHT22;7452;55.594;12.986;2023-03-03T12:05:07;4.00;99.90
14723;DHT22;7452;55.594;12.986;2023-03-03T12:07:40;4.00;99.90
14723;DHT22;7452;55.594;12.986;2023-03-03T12:10:17;4.10;99.90
14723;DHT22;7452;55.594;12.986;2023-03-03T12:12:51;4.20;99.90
14723;DHT22;7452;55.594;12.986;2023-03-03T12:15:28;4.10;99.90
14723;DHT22;7452;55.594;12.986;2023-03-03T12:18:19;4.10;99.90
14723;DHT22;7452;55.594;12.986;2023-03-03T12:21:01;4.10;99.90
14723;DHT22;7452;55.594;12.986;2023-03-03T12:23:49;4.00;99.90
14723;DHT22;7452;55.594;12.986;2023-03-03T12:26:24;3.70;99.90
14723;DHT22;7452;55.594;12.986;2023-03-03T12:28:56;3.50;99.90
14723;DHT22;7452;55.594;12.986;2023-03-03T12:31:32;3.50;99.90
14723;DHT22;7452;55.594;12.986;2023-03-03T12:34:05;3.40;99.90
14723;DHT22;7452;55.594;12.986;2023-03-03T12:36:55;3.40;99.90
14723;DHT22;7452;55.594;12.986;2023-03-03T12:39:43;3.30;99.90
14723;DHT22;7452;55.594;12.986;2023-03-03T12:42:40;3.30;99.90
14723;DHT22;7452;55.594;12.986;2023-03-03T12:45:22;3.40;99.90
14723;DHT22;7452;55.594;12.986;2023-03-03T12:47:57;3.40;99.90
14723;DHT22;7452;55.594;12.986;2023-03-03T12:50:33;3.30;99.90
14723;DHT22;7452;55.594;12.986;2023-03-03T12:53:18;3.50;99.90
14723;DHT22;7452;55.594;12.986;2023-03-03T12:55:52;3.70;99.90
14723;DHT22;7452;55.594;12.986;2023-03-03T12:58:30;3.90;99.90
14723;DHT22;7452;55.594;12.986;2023-03-03T13:01:08;3.90;99.90
14723;DHT22;7452;55.594;12.986;2023-03-03T13:03:44;3.90;99.90
14723;DHT22;7452;55.594;12.986;2023-03-03T13:06:19;4.10;99.90
14723;DHT22;7452;55.594;12.986;2023-03-03T13:09:00;3.90;99.90
14723;DHT22;7452;55.594;12.986;2023-03-03T13:14:22;4.10;99.90
14723;DHT22;7452;55.594;12.986;2023-03-03T13:17:03;4.10;99.90
14723;DHT22;7452;55.594;12.986;2023-03-03T13:19:36;4.20;99.90
14723;DHT22;7452;55.594;12.986;2023-03-03T13:22:08;4.50;99.90
14723;DHT22;7452;55.594;12.986;2023-03-03T13:24:50;4.90;99.90
14723;DHT22;7452;55.594;12.986;2023-03-03T13:27:24;5.00;99.90
14723;DHT22;7452;55.594;12.986;2023-03-03T13:29:59;5.00;99.90
14723;DHT22;7452;55.594;12.986;2023-03-03T13:32:32;5.20;99.90
14723;DHT22;7452;55.594;12.986;2023-03-03T13:35:06;5.20;99.90
14723;DHT22;7452;55.594;12.986;2023-03-03T13:37:36;5.40;99.90
14723;DHT22;7452;55.594;12.986;2023-03-03T13:40:15;5.80;99.90
14723;DHT22;7452;55.594;12.986;2023-03-03T13:42:45;5.90;99.90
14723;DHT22;7452;55.594;12.986;2023-03-03T13:45:22;5.90;99.90
14723;DHT22;7452;55.594;12.986;2023-03-03T13:47:58;5.90;99.90
14723;DHT22;7452;55.594;12.986;2023-03-03T13:50:31;5.60;99.90
14723;DHT22;7452;55.594;12.986;2023-03-03T13:53:19;5.40;99.90
14723;DHT22;7452;55.594;12.986;2023-03-03T13:56:07;5.40;99.90
14723;DHT22;7452;55.594;12.986;2023-03-03T13:58:48;5.40;99.90
14723;DHT22;7452;55.594;12.986;2023-03-03T14:01:24;5.70;99.90
14723;DHT22;7452;55.594;12.986;2023-03-03T14:04:10;6.00;99.90
14723;DHT22;7452;55.594;12.986;2023-03-03T14:06:42;6.30;99.90
14723;DHT22;7452;55.594;12.986;2023-03-03T14:09:33;6.20;99.90
14723;DHT22;7452;55.594;12.986;2023-03-03T14:12:13;6.40;99.90
14723;DHT22;7452;55.594;12.986;2023-03-03T14:14:48;6.20;99.90
14723;DHT22;7452;55.594;12.986;2023-03-03T14:17:26;6.30;99.90
14723;DHT22;7452;55.594;12.986;2023-03-03T14:20:02;6.30;99.90
14723;DHT22;7452;55.594;12.986;2023-03-03T14:22:38;6.20;99.90
14723;DHT22;7452;55.594;12.986;2023-03-03T14:25:11;6.20;99.90
14723;DHT22;7452;55.594;12.986;2023-03-03T14:27:52;6.20;99.90
14723;DHT22;7452;55.594;12.986;2023-03-03T14:30:30;6.90;99.90
14723;DHT22;7452;55.594;12.986;2023-03-03T14:33:06;7.70;99.90
14723;DHT22;7452;55.594;12.986;2023-03-03T14:35:43;8.30;99.90
14723;DHT22;7452;55.594;12.986;2023-03-03T14:38:12;8.50;99.90
14723;DHT22;7452;55.594;12.986;2023-03-03T14:40:43;9.00;99.90
14723;DHT22;7452;55.594;12.986;2023-03-03T14:46:36;8.60;99.90
14723;DHT22;7452;55.594;12.986;2023-03-03T14:49:06;8.50;99.90
14723;DHT22;7452;55.594;12.986;2023-03-03T14:51:40;8.60;99.90
14723;DHT22;7452;55.594;12.986;2023-03-03T14:54:13;9.30;99.90
14723;DHT22;7452;55.594;12.986;2023-03-03T14:57:02;8.80;99.90
14723;DHT22;7452;55.594;12.986;2023-03-03T14:59:34;8.70;99.90
14723;DHT22;7452;55.594;12.986;2023-03-03T15:02:29;8.60;99.90
14723;DHT22;7452;55.594;12.986;2023-03-03T15:05:19;8.50;99.90
14723;DHT22;7452;55.594;12.986;2023-03-03T15:07:50;8.30;99.90
14723;DHT22;7452;55.594;12.986;2023-03-03T15:10:31;8.20;99.90
14723;DHT22;7452;55.594;12.986;2023-03-03T15:13:29;8.40;99.90
14723;DHT22;7452;55.594;12.986;2023-03-03T15:16:15;8.40;99.90
14723;DHT22;7452;55.594;12.986;2023-03-03T15:22:17;8.00;99.90
14723;DHT22;7452;55.594;12.986;2023-03-03T15:24:56;7.60;99.90
14723;DHT22;7452;55.594;12.986;2023-03-03T15:27:28;7.30;99.90
14723;DHT22;7452;55.594;12.986;2023-03-03T15:30:03;7.40;99.90
14723;DHT22;7452;55.594;12.986;2023-03-03T15:32:52;7.50;99.90
14723;DHT22;7452;55.594;12.986;2023-03-03T15:35:31;7.70;99.90
14723;DHT22;7452;55.594;12.986;2023-03-03T15:38:13;7.40;99.90
14723;DHT22;7452;55.594;12.986;2023-03-03T15:40:51;7.20;99.90
14723;DHT22;7452;55.594;12.986;2023-03-03T15:43:27;7.00;99.90
14723;DHT22;7452;55.594;12.986;2023-03-03T15:46:05;6.80;99.90
14723;DHT22;7452;55.594;12.986;2023-03-03T15:48:49;6.70;99.90
14723;DHT22;7452;55.594;12.986;2023-03-03T15:51:37;6.60;99.90
14723;DHT22;7452;55.594;12.986;2023-03-03T15:54:27;6.50;99.90
14723;DHT22;7452;55.594;12.986;2023-03-03T15:57:00;6.20;99.90
14723;DHT22;7452;55.594;12.986;2023-03-03T16:02:23;6.00;99.90
14723;DHT22;7452;55.594;12.986;2023-03-03T16:04:55;6.10;99.90
14723;DHT22;7452;55.594;12.986;2023-03-03T16:07:38;5.90;99.90
14723;DHT22;7452;55.594;12.986;2023-03-03T16:10:27;5.80;99.90
14723;DHT22;7452;55.594;12.986;2023-03-03T16:13:05;5.90;99.90
14723;DHT22;7452;55.594;12.986;2023-03-03T16:15:45;5.70;99.90
14723;DHT22;7452;55.594;12.986;2023-03-03T16:18:26;5.50;99.90
14723;DHT22;7452;55.594;12.986;2023-03-03T16:21:13;5.40;99.90
14723;DHT22;7452;55.594;12.986;2023-03-03T16:23:46;5.40;99.90
14723;DHT22;7452;55.594;12.986;2023-03-03T16:26:26;5.40;99.90
14723;DHT22;7452;55.594;12.986;2023-03-03T16:29:10;5.30;99.90
14723;DHT22;7452;55.594;12.986;2023-03-03T16:31:44;5.20;99.90
14723;DHT22;7452;55.594;12.986;2023-03-03T16:34:16;5.20;99.90
14723;DHT22;7452;55.594;12.986;2023-03-03T16:36:53;5.20;99.90
14723;DHT22;7452;55.594;12.986;2023-03-03T16:39:35;5.10;99.90
14723;DHT22;7452;55.594;12.986;2023-03-03T16:42:16;5.10;99.90
14723;DHT22;7452;55.594;12.986;2023-03-03T16:44:50;5.10;99.90
14723;DHT22;7452;55.594;12.986;2023-03-03T16:47:37;5.10;99.90
14723;DHT22;7452;55.594;12.986;2023-03-03T16:50:18;5.00;99.90
14723;DHT22;7452;55.594;12.986;2023-03-03T16:52:53;5.10;99.90
14723;DHT22;7452;55.594;12.986;2023-03-03T16:55:26;5.10;99.90
14723;DHT22;7452;55.594;12.986;2023-03-03T16:58:05;5.10;99.90
14723;DHT22;7452;55.594;12.986;2023-03-03T17:00:37;5.10;99.90